createdAt,value
2023-04-30T00:01:26.987Z,9.25
2023-04-30T00:03:28.903Z,8.57
2023-04-30T00:05:30.965Z,9.68
2023-04-30T00:07:32.780Z,8.32
2023-04-30T00:09:34.724Z,8.83
2023-04-30T00:11:36.589Z,9.57
2023-04-30T00:13:38.467Z,8.32
2023-04-30T00:15:41.400Z,9.32
2023-04-30T00:17:43.257Z,8.82
2023-04-30T00:19:45.090Z,9.00
2023-04-30T00:21:47.723Z,9.07
2023-04-30T00:23:49.558Z,8.38
2023-04-30T00:25:51.431Z,8.67
2023-04-30T00:27:53.351Z,9.35
2023-04-30T00:29:55.664Z,8.70
2023-04-30T00:31:57.740Z,8.73
2023-04-30T00:33:59.735Z,8.75
2023-04-30T00:36:01.760Z,8.57
2023-04-30T00:38:03.574Z,9.18
2023-04-30T00:40:06.091Z,9.10
2023-04-30T00:42:08.355Z,8.10
2023-04-30T00:44:10.214Z,8.18
2023-04-30T00:46:12.069Z,7.57
2023-04-30T00:48:14.016Z,8.15
2023-04-30T00:50:16.425Z,7.93
2023-04-30T00:52:18.258Z,7.97
2023-04-30T00:54:21.268Z,8.45
2023-04-30T00:56:23.181Z,7.65
2023-04-30T00:58:25.055Z,8.93
2023-04-30T01:00:27.803Z,8.10
2023-04-30T01:04:31.733Z,8.85
2023-04-30T01:06:33.643Z,8.68
2023-04-30T01:08:35.573Z,8.73
2023-04-30T01:10:44.112Z,8.53
2023-04-30T01:12:49.014Z,8.77
2023-04-30T01:15:19.248Z,8.57
2023-04-30T01:17:57.385Z,8.70
2023-04-30T01:19:59.341Z,8.88
2023-04-30T01:22:01.858Z,8.75
2023-04-30T01:24:16.742Z,8.43
2023-04-30T01:26:58.176Z,8.50
2023-04-30T01:29:00.032Z,8.10
2023-04-30T01:31:01.929Z,9.05
2023-04-30T01:33:04.119Z,8.82
2023-04-30T01:35:06.333Z,8.70
2023-04-30T01:37:16.538Z,8.35
2023-04-30T01:39:31.710Z,8.30
2023-04-30T01:41:40.415Z,8.45
2023-04-30T01:44:10.156Z,8.50
2023-04-30T01:46:30.009Z,8.15
2023-04-30T01:48:46.941Z,8.80
2023-04-30T01:51:06.948Z,8.88
2023-04-30T01:53:11.401Z,8.38
2023-04-30T01:55:27.756Z,8.20
2023-04-30T01:57:36.901Z,8.23
2023-04-30T01:59:39.658Z,8.13
2023-04-30T02:01:41.916Z,8.18
2023-04-30T02:03:43.903Z,8.93
2023-04-30T02:05:45.803Z,8.70
2023-04-30T02:07:48.886Z,8.57
2023-04-30T02:09:50.810Z,8.35
2023-04-30T02:11:52.645Z,8.43
2023-04-30T02:13:54.515Z,7.60
2023-04-30T02:15:56.392Z,8.32
2023-04-30T02:17:58.323Z,8.63
2023-04-30T02:20:00.317Z,7.80
2023-04-30T02:22:02.184Z,8.75
2023-04-30T02:24:04.143Z,8.82
2023-04-30T02:26:06.092Z,8.52
2023-04-30T02:28:07.885Z,8.55
2023-04-30T02:30:09.819Z,8.33
2023-04-30T02:32:11.690Z,8.32
2023-04-30T02:34:13.500Z,7.68
2023-04-30T02:36:15.328Z,7.90
2023-04-30T02:38:17.201Z,8.47
2023-04-30T02:40:19.026Z,7.40
2023-04-30T02:42:20.918Z,8.30
2023-04-30T02:44:22.782Z,7.80
2023-04-30T02:46:24.943Z,7.83
2023-04-30T02:48:26.825Z,8.35
2023-04-30T02:50:28.655Z,7.93
2023-04-30T02:52:30.669Z,8.00
2023-04-30T02:54:32.526Z,8.48
2023-04-30T02:56:34.866Z,8.23
2023-04-30T02:58:36.694Z,8.18
2023-04-30T03:00:38.583Z,8.02
2023-04-30T03:02:41.092Z,7.68
2023-04-30T03:04:43.035Z,7.72
2023-04-30T03:06:45.012Z,7.25
2023-04-30T03:08:47.212Z,7.78
2023-04-30T03:10:49.053Z,8.20
2023-04-30T03:12:50.917Z,7.60
2023-04-30T03:14:53.072Z,8.17
2023-04-30T03:16:54.894Z,7.80
2023-04-30T03:18:56.734Z,7.77
2023-04-30T03:20:58.664Z,7.73
2023-04-30T03:23:00.509Z,7.68
2023-04-30T03:25:02.287Z,8.45
2023-04-30T03:27:04.095Z,7.83
2023-04-30T03:29:06.051Z,8.05
2023-04-30T03:31:08.113Z,8.18
2023-04-30T03:33:10.011Z,9.25
2023-04-30T03:35:11.849Z,8.43
2023-04-30T03:37:13.657Z,9.10
2023-04-30T03:39:16.182Z,8.88
2023-04-30T03:41:18.019Z,8.73
2023-04-30T03:43:19.918Z,9.73
2023-04-30T03:45:21.758Z,9.95
2023-04-30T03:47:24.758Z,9.23
2023-04-30T03:49:26.678Z,8.60
2023-04-30T03:51:28.537Z,8.88
2023-04-30T03:53:30.378Z,8.77
2023-04-30T03:55:33.256Z,9.00
2023-04-30T03:57:35.087Z,10.40
2023-04-30T03:59:36.862Z,9.68
2023-04-30T04:01:38.735Z,9.30
2023-04-30T04:03:40.791Z,8.95
2023-04-30T04:05:42.778Z,9.85
2023-04-30T04:07:44.621Z,9.38
2023-04-30T04:09:46.430Z,9.48
2023-04-30T04:11:48.541Z,9.48
2023-04-30T04:13:50.415Z,8.70
2023-04-30T04:15:52.289Z,8.52
2023-04-30T04:17:54.155Z,8.45
2023-04-30T04:19:56.266Z,8.90
2023-04-30T04:21:58.246Z,8.75
2023-04-30T04:24:00.078Z,8.43
2023-04-30T04:26:02.034Z,8.15
2023-04-30T04:28:03.978Z,7.80
2023-04-30T04:30:06.418Z,8.27
2023-04-30T04:32:10.434Z,8.15
2023-04-30T04:34:13.010Z,7.97
2023-04-30T04:36:14.807Z,7.85
2023-04-30T04:38:16.727Z,8.27
2023-04-30T04:40:18.719Z,7.82
2023-04-30T04:42:20.626Z,7.47
2023-04-30T04:44:22.985Z,7.88
2023-04-30T04:46:25.353Z,7.97
2023-04-30T04:48:27.189Z,7.50
2023-04-30T04:50:29.007Z,7.43
2023-04-30T04:52:30.881Z,7.30
2023-04-30T04:54:32.685Z,8.07
2023-04-30T04:56:34.641Z,7.33
2023-04-30T04:58:36.542Z,7.88
2023-04-30T05:00:39.451Z,7.40
2023-04-30T05:02:42.340Z,7.60
2023-04-30T05:04:44.468Z,8.10
2023-04-30T05:06:46.463Z,6.53
2023-04-30T05:08:48.333Z,8.18
2023-04-30T05:10:50.135Z,7.18
2023-04-30T05:12:51.944Z,7.23
2023-04-30T05:14:53.803Z,6.57
2023-04-30T05:16:55.662Z,7.90
2023-04-30T05:18:57.534Z,7.78
2023-04-30T05:20:59.386Z,6.78
2023-04-30T05:23:01.223Z,7.22
2023-04-30T05:25:03.034Z,6.63
2023-04-30T05:27:05.613Z,6.87
2023-04-30T05:29:07.419Z,6.65
2023-04-30T05:31:09.233Z,6.17
2023-04-30T05:33:11.782Z,6.07
2023-04-30T05:37:17.734Z,4.78
2023-04-30T05:39:19.541Z,4.55
2023-04-30T05:41:21.771Z,4.82
2023-04-30T05:43:23.617Z,4.97
2023-04-30T05:45:25.428Z,4.50
2023-04-30T05:47:27.317Z,4.60
2023-04-30T05:49:29.635Z,4.15
2023-04-30T05:51:32.653Z,4.80
2023-04-30T05:53:34.676Z,4.30
2023-04-30T05:55:36.478Z,3.63
2023-04-30T05:57:38.338Z,3.63
2023-04-30T05:59:40.392Z,3.27
2023-04-30T06:01:42.489Z,3.78
2023-04-30T06:03:44.325Z,3.65
2023-04-30T06:05:47.123Z,3.60
2023-04-30T06:07:49.086Z,3.33
2023-04-30T06:09:50.911Z,3.58
2023-04-30T06:11:52.967Z,3.47
2023-04-30T06:13:54.866Z,4.15
2023-04-30T06:15:56.661Z,4.18
2023-04-30T06:17:58.973Z,4.30
2023-04-30T06:20:02.769Z,3.95
2023-04-30T06:22:04.947Z,3.33
2023-04-30T06:24:07.107Z,3.95
2023-04-30T06:26:08.968Z,3.83
2023-04-30T06:28:10.901Z,4.30
2023-04-30T06:30:13.191Z,4.05
2023-04-30T06:32:15.094Z,3.67
2023-04-30T06:34:16.963Z,3.70
2023-04-30T06:36:19.655Z,3.47
2023-04-30T06:40:23.272Z,4.13
2023-04-30T06:42:25.100Z,4.00
2023-04-30T06:44:26.906Z,3.50
2023-04-30T06:46:28.752Z,3.13
2023-04-30T06:48:30.728Z,3.55
2023-04-30T06:50:32.674Z,3.25
2023-04-30T06:52:34.550Z,2.72
2023-04-30T06:54:36.362Z,3.60
2023-04-30T06:56:38.137Z,3.07
2023-04-30T06:58:40.023Z,3.10
2023-04-30T07:00:42.931Z,2.80
2023-04-30T07:02:45.537Z,2.90
2023-04-30T07:06:49.273Z,2.83
2023-04-30T07:08:51.178Z,3.13
2023-04-30T07:10:53.103Z,2.83
2023-04-30T07:12:55.310Z,2.80
2023-04-30T07:14:57.182Z,2.90
2023-04-30T07:16:58.998Z,3.08
2023-04-30T07:19:00.808Z,2.10
2023-04-30T07:21:02.609Z,2.83
2023-04-30T07:23:04.411Z,2.80
2023-04-30T07:25:06.916Z,3.00
2023-04-30T07:27:08.895Z,3.38
2023-04-30T07:29:10.714Z,2.78
2023-04-30T07:31:12.807Z,2.75
2023-04-30T07:33:14.721Z,2.85
2023-04-30T07:35:16.682Z,2.60
2023-04-30T07:37:18.474Z,2.80
2023-04-30T07:39:20.295Z,2.40
2023-04-30T07:41:22.133Z,2.37
2023-04-30T07:43:24.155Z,2.20
2023-04-30T07:45:26.011Z,1.83
2023-04-30T07:47:28.438Z,2.60
2023-04-30T07:49:30.343Z,2.00
2023-04-30T07:51:33.103Z,2.83
2023-04-30T07:53:34.949Z,2.33
2023-04-30T07:55:36.749Z,2.47
2023-04-30T07:57:38.619Z,2.27
2023-04-30T07:59:40.574Z,2.30
2023-04-30T08:01:42.547Z,2.78
2023-04-30T08:03:44.443Z,2.55
2023-04-30T08:05:47.508Z,2.30
2023-04-30T08:07:49.358Z,3.08
2023-04-30T08:09:51.909Z,2.63
2023-04-30T08:11:53.781Z,2.00
2023-04-30T08:13:55.752Z,2.73
2023-04-30T08:15:57.606Z,2.90
2023-04-30T08:17:59.503Z,2.73
2023-04-30T08:20:02.875Z,2.30
2023-04-30T08:22:04.690Z,2.33
2023-04-30T08:24:06.725Z,2.60
2023-04-30T08:26:08.522Z,2.80
2023-04-30T08:28:10.410Z,2.90
2023-04-30T08:30:12.340Z,2.53
2023-04-30T08:32:14.425Z,2.53
2023-04-30T08:34:16.472Z,2.50
2023-04-30T08:36:18.313Z,2.60
2023-04-30T08:38:20.136Z,2.57
2023-04-30T08:40:23.619Z,2.10
2023-04-30T08:42:36.561Z,2.50
2023-04-30T08:44:44.015Z,2.20
2023-04-30T08:46:46.391Z,2.95
2023-04-30T08:48:48.850Z,2.28
2023-04-30T08:50:50.793Z,2.25
2023-04-30T08:52:52.632Z,2.47
2023-04-30T08:54:54.464Z,3.70
2023-04-30T08:56:56.344Z,2.37
2023-04-30T08:58:58.197Z,3.23
2023-04-30T09:01:00.777Z,3.50
2023-04-30T09:03:02.725Z,3.67
2023-04-30T09:05:07.799Z,3.08
2023-04-30T09:07:11.449Z,2.40
2023-04-30T09:09:14.317Z,2.85
2023-04-30T09:11:28.748Z,2.40
2023-04-30T09:13:41.096Z,3.08
2023-04-30T09:15:44.626Z,2.17
2023-04-30T09:17:48.341Z,2.50
2023-04-30T09:19:50.453Z,2.03
2023-04-30T09:21:52.482Z,1.60
2023-04-30T09:23:57.971Z,1.65
2023-04-30T09:26:00.829Z,1.83
2023-04-30T09:28:12.529Z,1.90
2023-04-30T09:30:31.353Z,2.10
2023-04-30T09:32:33.305Z,1.77
2023-04-30T09:34:35.928Z,1.52
2023-04-30T09:36:37.836Z,2.00
2023-04-30T09:38:39.619Z,2.22
2023-04-30T09:40:42.152Z,2.17
2023-04-30T09:42:59.607Z,1.88
2023-04-30T09:45:01.447Z,2.45
2023-04-30T09:47:03.552Z,1.98
2023-04-30T09:49:06.121Z,1.88
2023-04-30T09:51:08.103Z,1.80
2023-04-30T09:53:10.615Z,1.77
2023-04-30T09:55:12.468Z,2.10
2023-04-30T09:57:15.268Z,2.03
2023-04-30T09:59:17.139Z,2.17
2023-04-30T10:01:19.564Z,2.03
2023-04-30T10:03:21.476Z,1.85
2023-04-30T10:05:23.349Z,1.65
2023-04-30T10:07:26.423Z,1.60
2023-04-30T10:09:30.887Z,2.10
2023-04-30T10:11:33.335Z,1.73
2023-04-30T10:13:52.718Z,1.50
2023-04-30T10:15:54.935Z,2.42
2023-04-30T10:18:05.357Z,2.35
2023-04-30T10:20:07.832Z,2.08
2023-04-30T10:22:09.754Z,2.17
2023-04-30T10:24:13.573Z,2.35
2023-04-30T10:26:16.862Z,1.70
2023-04-30T10:28:18.814Z,1.73
2023-04-30T10:30:20.656Z,1.60
2023-04-30T10:32:24.105Z,1.77
2023-04-30T10:34:45.557Z,1.90
2023-04-30T10:36:49.252Z,1.50
2023-04-30T10:38:51.127Z,1.75
2023-04-30T10:41:10.961Z,1.73
2023-04-30T10:43:13.162Z,1.70
2023-04-30T10:45:16.463Z,1.95
2023-04-30T10:47:19.395Z,1.65
2023-04-30T10:49:26.274Z,2.22
2023-04-30T10:51:58.746Z,1.75
2023-04-30T10:54:00.639Z,1.77
2023-04-30T10:56:06.937Z,1.70
2023-04-30T10:58:31.217Z,1.80
2023-04-30T11:00:33.249Z,2.15
2023-04-30T11:02:44.034Z,1.92
2023-04-30T11:05:08.182Z,2.30
2023-04-30T11:07:10.274Z,1.80
2023-04-30T11:09:12.114Z,2.05
2023-04-30T11:11:21.480Z,2.30
2023-04-30T11:13:23.503Z,2.40
2023-04-30T11:15:33.373Z,2.20
2023-04-30T11:17:35.378Z,1.75
2023-04-30T11:19:48.772Z,2.28
2023-04-30T11:22:05.800Z,2.00
2023-04-30T11:24:07.826Z,2.03
2023-04-30T11:26:09.833Z,1.90
2023-04-30T11:28:15.242Z,2.17
2023-04-30T11:30:17.633Z,2.05
2023-04-30T11:32:20.492Z,2.17
2023-04-30T11:34:22.512Z,1.88
2023-04-30T11:36:24.355Z,2.13
2023-04-30T11:38:35.384Z,2.27
2023-04-30T11:40:37.407Z,1.98
2023-04-30T11:42:41.193Z,1.88
2023-04-30T11:44:45.389Z,1.92
2023-04-30T11:46:47.287Z,2.28
2023-04-30T11:48:49.381Z,2.30
2023-04-30T11:50:52.445Z,3.15
2023-04-30T11:52:54.503Z,1.90
2023-04-30T11:54:57.919Z,2.40
2023-04-30T11:57:04.330Z,1.95
2023-04-30T11:59:12.544Z,2.30
2023-04-30T12:01:15.208Z,2.42
2023-04-30T12:05:21.978Z,1.90
2023-04-30T12:07:23.936Z,2.35
2023-04-30T12:09:25.738Z,2.33
2023-04-30T12:11:28.764Z,2.28
2023-04-30T12:13:32.103Z,2.10
2023-04-30T12:15:34.409Z,2.00
2023-04-30T12:17:36.497Z,1.88
2023-04-30T12:19:38.397Z,2.30
2023-04-30T12:21:41.012Z,2.55
2023-04-30T12:25:44.643Z,2.80
2023-04-30T12:27:50.888Z,2.13
2023-04-30T12:29:55.031Z,2.30
2023-04-30T12:31:58.158Z,2.05
2023-04-30T12:34:04.606Z,1.80
2023-04-30T12:36:10.940Z,2.35
2023-04-30T12:38:16.321Z,2.55
2023-04-30T12:40:21.988Z,2.28
2023-04-30T12:42:25.148Z,2.53
2023-04-30T12:44:28.188Z,2.13
2023-04-30T12:46:30.113Z,2.10
2023-04-30T12:48:32.071Z,2.38
2023-04-30T12:50:34.074Z,2.28
2023-04-30T12:52:35.949Z,2.22
2023-04-30T12:54:38.251Z,2.92
2023-04-30T12:56:40.509Z,2.47
2023-04-30T12:58:47.666Z,2.22
2023-04-30T13:00:50.602Z,2.40
2023-04-30T13:02:53.178Z,2.63
2023-04-30T13:06:57.496Z,2.45
2023-04-30T13:08:59.335Z,2.40
2023-04-30T13:11:01.206Z,2.50
2023-04-30T13:13:03.000Z,2.00
2023-04-30T13:15:05.323Z,2.13
2023-04-30T13:17:08.475Z,2.28
2023-04-30T13:19:10.524Z,2.10
2023-04-30T13:21:12.813Z,2.20
2023-04-30T13:23:14.642Z,2.33
2023-04-30T13:25:17.152Z,2.70
2023-04-30T13:29:23.770Z,2.35
2023-04-30T13:31:25.814Z,2.47
2023-04-30T13:33:27.671Z,3.03
2023-04-30T13:35:29.946Z,2.30
2023-04-30T13:37:32.139Z,3.00
2023-04-30T13:39:33.941Z,2.47
2023-04-30T13:41:35.885Z,2.67
2023-04-30T13:43:41.457Z,2.60
2023-04-30T13:45:44.126Z,2.42
2023-04-30T13:47:46.219Z,2.22
2023-04-30T13:49:48.064Z,2.38
2023-04-30T13:51:49.927Z,2.53
2023-04-30T13:53:51.769Z,2.13
2023-04-30T13:55:54.068Z,2.00
2023-04-30T13:57:56.246Z,2.10
2023-04-30T13:59:58.355Z,2.25
2023-04-30T14:02:00.711Z,2.45
2023-04-30T14:04:02.690Z,2.05
2023-04-30T14:06:06.034Z,2.30
2023-04-30T14:08:07.938Z,2.75
2023-04-30T14:10:09.921Z,2.83
2023-04-30T14:12:11.764Z,2.17
2023-04-30T14:14:13.989Z,2.00
2023-04-30T14:16:16.149Z,2.22
2023-04-30T14:18:18.655Z,2.13
2023-04-30T14:20:20.659Z,2.42
2023-04-30T14:22:22.771Z,2.15
2023-04-30T14:24:24.845Z,2.10
2023-04-30T14:26:26.682Z,2.55
2023-04-30T14:28:28.525Z,1.90
2023-04-30T14:30:30.429Z,2.20
2023-04-30T14:32:32.306Z,2.65
2023-04-30T14:34:34.209Z,2.20
2023-04-30T14:36:36.953Z,2.20
2023-04-30T14:38:38.797Z,2.25
2023-04-30T14:40:40.791Z,1.85
2023-04-30T14:42:42.831Z,1.98
2023-04-30T14:44:44.668Z,2.15
2023-04-30T14:46:46.527Z,2.22
2023-04-30T14:48:48.367Z,2.10
2023-04-30T14:50:50.569Z,2.25
2023-04-30T14:54:54.316Z,2.70
2023-04-30T14:56:56.246Z,2.22
2023-04-30T14:58:58.067Z,2.05
2023-04-30T15:00:59.946Z,2.53
2023-04-30T15:03:01.841Z,2.13
2023-04-30T15:05:07.487Z,2.67
2023-04-30T15:07:09.330Z,2.35
2023-04-30T15:09:12.378Z,2.33
2023-04-30T15:11:14.923Z,2.10
2023-04-30T15:13:16.839Z,1.90
2023-04-30T15:15:19.099Z,2.10
2023-04-30T15:19:23.504Z,2.20
2023-04-30T15:21:26.680Z,2.30
2023-04-30T15:23:28.570Z,2.15
2023-04-30T15:25:30.513Z,2.10
2023-04-30T15:27:33.890Z,2.38
2023-04-30T15:29:37.031Z,1.95
2023-04-30T15:31:38.991Z,1.88
2023-04-30T15:33:42.244Z,2.58
2023-04-30T15:35:44.203Z,2.83
2023-04-30T15:37:46.068Z,2.63
2023-04-30T15:39:49.705Z,2.35
2023-04-30T15:41:51.797Z,2.10
2023-04-30T15:43:53.672Z,1.80
2023-04-30T15:45:56.077Z,1.90
2023-04-30T15:49:59.738Z,1.88
2023-04-30T15:52:01.690Z,1.85
2023-04-30T15:54:03.542Z,2.10
2023-04-30T15:56:05.467Z,1.92
2023-04-30T15:58:07.563Z,2.30
2023-04-30T16:00:10.808Z,2.38
2023-04-30T16:02:12.822Z,2.58
2023-04-30T16:04:14.787Z,2.42
2023-04-30T16:06:17.224Z,2.30
2023-04-30T16:10:21.327Z,2.58
2023-04-30T16:12:23.253Z,1.90
2023-04-30T16:14:25.249Z,2.20
2023-04-30T16:16:28.090Z,2.25
2023-04-30T16:18:30.152Z,2.22
2023-04-30T16:20:32.245Z,2.40
2023-04-30T16:22:34.547Z,1.77
2023-04-30T16:24:36.553Z,1.80
2023-04-30T16:26:38.510Z,1.90
2023-04-30T16:28:40.369Z,1.95
2023-04-30T16:30:42.623Z,2.00
2023-04-30T16:32:44.670Z,1.88
2023-04-30T16:34:46.701Z,1.70
2023-04-30T16:36:48.536Z,2.00
2023-04-30T16:38:50.420Z,2.05
2023-04-30T16:40:52.528Z,1.98
2023-04-30T16:42:54.386Z,2.20
2023-04-30T16:44:56.419Z,2.10
2023-04-30T16:46:59.936Z,2.08
2023-04-30T16:49:01.736Z,2.00
2023-04-30T16:51:03.872Z,1.92
2023-04-30T16:53:06.409Z,1.80
2023-04-30T16:57:12.301Z,2.05
2023-04-30T16:59:14.245Z,2.05
2023-04-30T17:01:16.265Z,2.00
2023-04-30T17:03:18.244Z,2.45
2023-04-30T17:05:20.422Z,2.33
2023-04-30T17:07:22.253Z,2.55
2023-04-30T17:09:24.152Z,2.00
2023-04-30T17:11:26.052Z,2.03
2023-04-30T17:13:30.824Z,1.90
2023-04-30T17:15:32.725Z,2.38
2023-04-30T17:17:34.654Z,2.42
2023-04-30T17:19:36.510Z,2.03
2023-04-30T17:21:38.352Z,2.13
2023-04-30T17:23:40.558Z,2.13
2023-04-30T17:25:43.100Z,2.28
2023-04-30T17:29:46.933Z,2.28
2023-04-30T17:31:49.197Z,3.00
2023-04-30T17:33:51.271Z,3.10
2023-04-30T17:35:53.260Z,2.55
2023-04-30T17:37:55.246Z,2.60
2023-04-30T17:39:57.471Z,2.35
2023-04-30T17:41:59.647Z,2.00
2023-04-30T17:44:01.494Z,2.10
2023-04-30T17:46:03.611Z,2.47
2023-04-30T17:48:05.627Z,2.45
2023-04-30T17:50:08.949Z,2.55
2023-04-30T17:52:10.848Z,2.58
2023-04-30T17:54:12.807Z,2.58
2023-04-30T17:56:15.222Z,2.92
2023-04-30T17:58:17.923Z,2.75
2023-04-30T18:00:20.856Z,2.40
2023-04-30T18:02:23.762Z,2.70
2023-04-30T18:04:25.956Z,2.45
2023-04-30T18:06:28.336Z,2.83
2023-04-30T18:08:30.994Z,2.90
2023-04-30T18:12:35.724Z,2.58
2023-04-30T18:14:37.642Z,2.63
2023-04-30T18:16:39.641Z,2.50
2023-04-30T18:18:41.598Z,2.53
2023-04-30T18:20:43.511Z,2.42
2023-04-30T18:22:45.377Z,2.90
2023-04-30T18:24:47.167Z,2.60
2023-04-30T18:26:49.090Z,2.60
2023-04-30T18:28:52.179Z,2.65
2023-04-30T18:30:54.762Z,2.97
2023-04-30T18:32:56.882Z,2.40
2023-04-30T18:34:58.840Z,3.00
2023-04-30T18:37:00.830Z,3.33
2023-04-30T18:39:03.007Z,3.60
2023-04-30T18:41:05.257Z,3.50
2023-04-30T18:43:07.288Z,3.00
2023-04-30T18:45:11.569Z,3.10
2023-04-30T18:47:14.342Z,2.80
2023-04-30T18:49:16.289Z,2.70
2023-04-30T18:51:18.693Z,2.72
2023-04-30T18:53:25.234Z,3.13
2023-04-30T18:55:27.341Z,2.95
2023-04-30T18:57:29.376Z,2.10
2023-04-30T18:59:31.493Z,2.65
2023-04-30T19:01:33.762Z,3.08
2023-04-30T19:03:35.821Z,2.40
2023-04-30T19:05:37.871Z,3.00
2023-04-30T19:07:40.078Z,2.70
2023-04-30T19:09:42.139Z,2.97
2023-04-30T19:11:44.032Z,2.70
2023-04-30T19:13:45.886Z,2.77
2023-04-30T19:15:49.012Z,3.47
2023-04-30T19:17:50.947Z,2.88
2023-04-30T19:19:53.149Z,3.63
2023-04-30T19:21:55.271Z,3.20
2023-04-30T19:23:57.811Z,3.08
2023-04-30T19:26:00.022Z,4.05
2023-04-30T19:28:02.042Z,3.35
2023-04-30T19:30:04.338Z,3.35
2023-04-30T19:32:06.520Z,2.80
2023-04-30T19:34:08.483Z,3.05
2023-04-30T19:36:10.613Z,3.60
2023-04-30T19:38:12.528Z,3.63
2023-04-30T19:40:14.754Z,3.23
2023-04-30T19:42:16.615Z,3.30
2023-04-30T19:44:20.021Z,3.35
2023-04-30T19:46:21.878Z,4.00
2023-04-30T19:48:24.290Z,3.30
2023-04-30T19:50:26.166Z,3.30
2023-04-30T19:52:28.075Z,3.67
2023-04-30T19:54:29.942Z,3.40
2023-04-30T19:56:32.233Z,3.42
2023-04-30T19:58:34.073Z,4.18
2023-04-30T20:00:41.601Z,4.10
2023-04-30T20:02:43.714Z,3.75
2023-04-30T20:04:45.739Z,3.47
2023-04-30T20:06:48.273Z,3.75
2023-04-30T20:08:50.128Z,4.10
2023-04-30T20:10:52.261Z,4.00
2023-04-30T20:12:54.547Z,4.35
2023-04-30T20:14:56.423Z,4.07
2023-04-30T20:16:58.524Z,3.85
2023-04-30T20:19:00.412Z,4.15
2023-04-30T20:21:02.242Z,3.55
2023-04-30T20:23:14.386Z,4.07
2023-04-30T20:25:16.311Z,4.33
2023-04-30T20:27:18.504Z,4.35
2023-04-30T20:29:20.785Z,4.18
2023-04-30T20:31:22.834Z,4.00
2023-04-30T20:33:25.567Z,4.55
2023-04-30T20:37:29.158Z,4.55
2023-04-30T20:39:31.152Z,4.67
2023-04-30T20:41:33.048Z,5.30
2023-04-30T20:43:34.948Z,5.67
2023-04-30T20:45:37.249Z,5.10
2023-04-30T20:47:40.152Z,5.10
2023-04-30T20:49:43.615Z,5.82
2023-04-30T20:51:45.516Z,4.80
2023-04-30T20:53:47.456Z,5.50
2023-04-30T20:55:49.373Z,5.15
2023-04-30T20:57:51.326Z,6.07
2023-04-30T20:59:53.236Z,5.00
2023-04-30T21:01:55.191Z,4.70
2023-04-30T21:03:57.076Z,4.97
2023-04-30T21:05:58.941Z,5.28
2023-04-30T21:08:01.803Z,5.25
2023-04-30T21:10:08.512Z,6.43
2023-04-30T21:12:11.747Z,6.70
2023-04-30T21:14:13.606Z,5.95
2023-04-30T21:16:15.683Z,5.75
2023-04-30T21:18:17.651Z,6.03
2023-04-30T21:20:19.595Z,5.63
2023-04-30T21:22:21.474Z,5.45
2023-04-30T21:24:23.369Z,5.65
2023-04-30T21:26:25.236Z,5.53
2023-04-30T21:28:27.354Z,5.65
2023-04-30T21:30:29.337Z,6.75
2023-04-30T21:32:31.489Z,5.97
2023-04-30T21:34:33.825Z,6.03
2023-04-30T21:36:36.018Z,6.22
2023-04-30T21:38:38.046Z,6.30
2023-04-30T21:40:42.443Z,6.82
2023-04-30T21:42:44.315Z,5.72
2023-04-30T21:44:46.190Z,6.10
2023-04-30T21:46:48.261Z,6.90
2023-04-30T21:48:50.310Z,8.73
2023-04-30T21:50:52.171Z,7.10
2023-04-30T21:52:54.036Z,7.50
2023-04-30T21:54:55.854Z,6.13
2023-04-30T21:56:57.716Z,5.37
2023-04-30T21:58:59.560Z,5.87
2023-04-30T22:01:02.045Z,6.10
2023-04-30T22:03:04.103Z,5.63
2023-04-30T22:05:06.538Z,5.60
2023-04-30T22:07:08.309Z,8.38
2023-04-30T22:09:10.546Z,5.90
2023-04-30T22:11:12.519Z,6.18
2023-04-30T22:13:15.138Z,6.28
2023-04-30T22:15:17.034Z,6.55
2023-04-30T22:17:18.915Z,6.23
2023-04-30T22:19:20.774Z,5.40
2023-04-30T22:21:22.596Z,5.63
2023-04-30T22:23:24.389Z,6.27
2023-04-30T22:25:26.263Z,6.87
2023-04-30T22:27:28.157Z,5.50
2023-04-30T22:29:29.998Z,6.47
2023-04-30T22:31:31.921Z,6.40
2023-04-30T22:33:37.231Z,7.03
2023-04-30T22:35:39.434Z,7.20
2023-04-30T22:37:41.248Z,7.95
2023-04-30T22:39:43.231Z,7.53
2023-04-30T22:41:47.930Z,6.97
2023-04-30T22:43:49.740Z,7.13
2023-04-30T22:45:51.743Z,8.20
2023-04-30T22:47:53.782Z,8.55
2023-04-30T22:49:56.251Z,8.85
2023-04-30T22:51:58.296Z,11.02
2023-04-30T22:54:00.380Z,9.50
2023-04-30T22:56:02.237Z,8.77
2023-04-30T22:58:04.141Z,8.20
2023-04-30T23:00:06.594Z,7.03
2023-04-30T23:02:08.488Z,7.97
2023-04-30T23:04:10.454Z,8.05
2023-04-30T23:06:12.616Z,14.10
2023-04-30T23:08:14.443Z,11.05
2023-04-30T23:10:16.741Z,9.87
2023-04-30T23:12:18.862Z,8.30
2023-04-30T23:14:20.663Z,9.00
2023-04-30T23:16:22.510Z,10.53
2023-04-30T23:18:24.425Z,8.40
2023-04-30T23:20:26.306Z,8.43
2023-04-30T23:22:28.113Z,7.93
2023-04-30T23:24:35.271Z,7.43
2023-04-30T23:26:37.158Z,7.88
2023-04-30T23:28:39.080Z,7.82
2023-04-30T23:30:40.917Z,6.50
2023-04-30T23:32:42.877Z,7.77
2023-04-30T23:34:44.764Z,7.85
2023-04-30T23:36:46.622Z,6.77
2023-04-30T23:38:48.460Z,6.93
2023-04-30T23:40:50.359Z,5.93
2023-04-30T23:42:52.188Z,6.20
2023-04-30T23:44:54.073Z,7.40
2023-04-30T23:46:56.035Z,6.85
2023-04-30T23:48:58.611Z,6.70
2023-04-30T23:51:01.156Z,6.60
2023-04-30T23:53:03.418Z,5.80
2023-04-30T23:55:05.710Z,5.90
2023-04-30T23:57:07.513Z,5.82
2023-04-30T23:59:09.366Z,6.27
